createdAt,value
2017-04-19T00:00:12.320Z,8.72
2017-04-19T00:01:11.267Z,7.83
2017-04-19T00:02:10.214Z,8.39
2017-04-19T00:03:09.171Z,9.57
2017-04-19T00:04:08.215Z,7.33
2017-04-19T00:05:07.187Z,8.52
2017-04-19T00:06:06.143Z,9.30
2017-04-19T00:07:05.096Z,7.85
2017-04-19T00:08:04.092Z,8.95
2017-04-19T00:09:03.057Z,8.63
2017-04-19T00:10:02.048Z,8.37
2017-04-19T00:11:01.031Z,9.70
2017-04-19T00:12:00.020Z,9.30
2017-04-19T00:12:59.012Z,7.38
2017-04-19T00:13:57.989Z,8.18
2017-04-19T00:14:56.940Z,7.98
2017-04-19T00:15:55.926Z,8.63
2017-04-19T00:16:55.636Z,10.43
2017-04-19T00:17:54.599Z,10.13
2017-04-19T00:18:53.549Z,9.02
2017-04-19T00:19:52.545Z,7.75
2017-04-19T00:20:51.504Z,8.63
2017-04-19T00:21:50.489Z,8.83
2017-04-19T00:22:49.471Z,9.95
2017-04-19T00:23:48.460Z,10.82
2017-04-19T00:24:47.438Z,9.43
2017-04-19T00:25:46.391Z,9.40
2017-04-19T00:26:45.416Z,9.12
2017-04-19T00:27:44.418Z,7.70
2017-04-19T00:28:43.388Z,8.68
2017-04-19T00:29:42.354Z,12.67
2017-04-19T00:30:41.313Z,9.15
2017-04-19T00:31:40.267Z,11.05
2017-04-19T00:32:39.960Z,14.83
2017-04-19T00:33:39.676Z,9.63
2017-04-19T00:34:38.640Z,8.77
2017-04-19T00:35:37.603Z,11.32
2017-04-19T00:36:36.571Z,8.07
2017-04-19T00:37:35.524Z,8.20
2017-04-19T00:38:34.493Z,7.97
2017-04-19T00:39:33.503Z,8.90
2017-04-19T00:40:32.473Z,8.40
2017-04-19T00:41:31.431Z,8.68
2017-04-19T00:42:31.364Z,8.30
2017-04-19T00:43:30.723Z,9.83
2017-04-19T00:44:29.712Z,9.98
2017-04-19T00:45:29.424Z,8.85
2017-04-19T00:46:28.388Z,9.93
2017-04-19T00:47:28.124Z,10.35
2017-04-19T00:48:27.129Z,9.32
2017-04-19T00:49:26.116Z,9.78
2017-04-19T00:50:25.075Z,7.88
2017-04-19T00:51:24.082Z,11.38
2017-04-19T00:52:23.067Z,10.00
2017-04-19T00:53:22.046Z,9.38
2017-04-19T00:54:21.033Z,8.57
2017-04-19T00:55:20.000Z,8.22
2017-04-19T00:56:18.956Z,9.32
2017-04-19T00:57:17.929Z,10.25
2017-04-19T00:58:17.673Z,8.22
2017-04-19T00:59:16.638Z,10.75
2017-04-19T01:00:15.604Z,8.68
2017-04-19T01:01:14.551Z,9.37
2017-04-19T01:02:13.530Z,9.60
2017-04-19T01:03:12.547Z,9.47
2017-04-19T01:04:11.499Z,11.17
2017-04-19T01:05:10.479Z,7.80
2017-04-19T01:06:09.419Z,9.63
2017-04-19T01:07:08.412Z,9.55
2017-04-19T01:08:07.367Z,9.75
2017-04-19T01:09:06.339Z,9.52
2017-04-19T01:10:06.091Z,9.85
2017-04-19T01:11:05.043Z,8.42
2017-04-19T01:12:04.012Z,10.87
2017-04-19T01:13:02.975Z,8.77
2017-04-19T01:14:01.936Z,11.62
2017-04-19T01:15:00.934Z,8.47
2017-04-19T01:15:59.947Z,11.75
2017-04-19T01:16:58.898Z,9.05
2017-04-19T01:17:57.859Z,8.08
2017-04-19T01:18:56.846Z,10.75
2017-04-19T01:19:55.825Z,10.08
2017-04-19T01:20:54.821Z,10.98
2017-04-19T01:21:53.781Z,10.52
2017-04-19T01:22:52.745Z,9.18
2017-04-19T01:23:51.757Z,10.33
2017-04-19T01:24:50.739Z,10.73
2017-04-19T01:25:49.734Z,9.33
2017-04-19T01:26:48.729Z,9.50
2017-04-19T01:27:47.700Z,9.78
2017-04-19T01:28:46.669Z,11.60
2017-04-19T01:29:45.647Z,10.47
2017-04-19T01:30:44.616Z,9.27
2017-04-19T01:31:43.572Z,10.52
2017-04-19T01:32:42.596Z,10.45
2017-04-19T01:33:41.591Z,9.03
2017-04-19T01:34:40.547Z,10.83
2017-04-19T01:35:39.524Z,11.30
2017-04-19T01:36:38.536Z,9.37
2017-04-19T01:37:37.499Z,12.50
2017-04-19T01:38:36.485Z,8.68
2017-04-19T01:39:35.458Z,10.12
2017-04-19T01:40:34.424Z,10.82
2017-04-19T01:41:33.370Z,10.92
2017-04-19T01:42:32.487Z,8.70
2017-04-19T01:43:31.451Z,11.58
2017-04-19T01:44:30.428Z,11.32
2017-04-19T01:45:29.388Z,11.77
2017-04-19T01:46:28.342Z,11.92
2017-04-19T01:47:27.314Z,9.75
2017-04-19T01:48:26.283Z,9.33
2017-04-19T01:49:25.241Z,11.93
2017-04-19T01:50:24.236Z,11.50
2017-04-19T01:51:23.211Z,9.35
2017-04-19T01:52:22.161Z,9.77
2017-04-19T01:53:21.128Z,10.32
2017-04-19T01:54:20.860Z,11.33
2017-04-19T01:55:19.844Z,9.87
2017-04-19T01:56:18.849Z,9.42
2017-04-19T01:57:17.819Z,11.80
2017-04-19T01:58:16.791Z,9.52
2017-04-19T01:59:15.787Z,11.53
2017-04-19T02:00:14.760Z,9.02
2017-04-19T02:01:13.729Z,10.42
2017-04-19T02:02:13.685Z,10.97
2017-04-19T02:03:12.718Z,12.25
2017-04-19T02:04:11.779Z,10.63
2017-04-19T02:05:10.733Z,10.22
2017-04-19T02:06:15.124Z,11.38
2017-04-19T02:07:19.636Z,10.07
2017-04-19T02:08:18.616Z,8.30
2017-04-19T02:09:17.575Z,10.87
2017-04-19T02:10:17.702Z,10.30
2017-04-19T02:11:16.673Z,12.92
2017-04-19T02:12:16.421Z,11.20
2017-04-19T02:13:15.423Z,9.90
2017-04-19T02:14:14.416Z,10.63
2017-04-19T02:15:13.395Z,10.63
2017-04-19T02:16:12.373Z,11.60
2017-04-19T02:17:11.354Z,10.68
2017-04-19T02:18:10.391Z,9.55
2017-04-19T02:19:09.416Z,9.98
2017-04-19T02:20:08.743Z,12.87
2017-04-19T02:21:07.770Z,10.87
2017-04-19T02:22:06.736Z,9.82
2017-04-19T02:23:05.698Z,10.37
2017-04-19T02:24:04.662Z,12.98
2017-04-19T02:25:04.419Z,9.15
2017-04-19T02:26:03.384Z,11.00
2017-04-19T02:27:02.341Z,8.87
2017-04-19T02:28:01.301Z,10.28
2017-04-19T02:29:00.286Z,10.63
2017-04-19T02:29:59.245Z,9.70
2017-04-19T02:30:58.227Z,9.53
2017-04-19T02:31:57.195Z,10.63
2017-04-19T02:32:56.159Z,10.90
2017-04-19T02:33:55.116Z,11.78
2017-04-19T02:34:54.085Z,10.47
2017-04-19T02:35:53.830Z,10.90
2017-04-19T02:36:52.841Z,11.18
2017-04-19T02:37:51.799Z,10.75
2017-04-19T02:38:50.789Z,11.22
2017-04-19T02:39:49.780Z,9.45
2017-04-19T02:40:48.746Z,10.30
2017-04-19T02:41:47.704Z,9.05
2017-04-19T02:42:46.699Z,10.85
2017-04-19T02:43:45.677Z,14.08
2017-04-19T02:44:44.636Z,10.03
2017-04-19T02:45:44.336Z,8.88
2017-04-19T02:46:44.042Z,9.00
2017-04-19T02:47:43.754Z,9.25
2017-04-19T02:48:43.508Z,14.50
2017-04-19T02:49:42.488Z,9.40
2017-04-19T02:50:41.462Z,12.08
2017-04-19T02:51:40.435Z,12.93
2017-04-19T02:52:39.407Z,10.62
2017-04-19T02:53:38.409Z,11.03
2017-04-19T02:54:37.401Z,9.08
2017-04-19T02:55:36.374Z,9.25
2017-04-19T02:56:35.330Z,9.10
2017-04-19T02:57:34.287Z,9.40
2017-04-19T02:58:33.997Z,9.22
2017-04-19T02:59:32.971Z,9.03
2017-04-19T03:00:32.720Z,9.90
2017-04-19T03:01:32.452Z,8.73
2017-04-19T03:02:31.427Z,9.38
2017-04-19T03:03:30.459Z,11.08
2017-04-19T03:04:29.439Z,9.45
2017-04-19T03:05:28.408Z,10.42
2017-04-19T03:06:28.171Z,10.83
2017-04-19T03:07:27.256Z,9.23
2017-04-19T03:08:26.216Z,8.33
2017-04-19T03:09:25.171Z,9.15
2017-04-19T03:10:24.157Z,9.70
2017-04-19T03:11:23.132Z,11.93
2017-04-19T03:12:22.120Z,9.38
2017-04-19T03:13:21.081Z,10.60
2017-04-19T03:14:20.776Z,8.27
2017-04-19T03:15:19.711Z,9.85
2017-04-19T03:16:18.669Z,9.20
2017-04-19T03:17:17.616Z,9.23
2017-04-19T03:18:16.629Z,9.75
2017-04-19T03:19:15.592Z,9.33
2017-04-19T03:20:15.292Z,13.05
2017-04-19T03:21:14.248Z,9.43
2017-04-19T03:22:13.198Z,8.53
2017-04-19T03:23:12.160Z,8.33
2017-04-19T03:24:11.173Z,12.47
2017-04-19T03:25:10.157Z,11.40
2017-04-19T03:26:09.116Z,9.73
2017-04-19T03:27:08.077Z,9.28
2017-04-19T03:28:07.783Z,11.07
2017-04-19T03:29:06.802Z,8.48
2017-04-19T03:30:05.775Z,11.40
2017-04-19T03:31:04.731Z,8.92
2017-04-19T03:32:04.434Z,9.63
2017-04-19T03:33:03.423Z,11.55
2017-04-19T03:34:02.374Z,9.93
2017-04-19T03:35:01.341Z,11.12
2017-04-19T03:36:00.332Z,10.32
2017-04-19T03:36:59.288Z,9.55
2017-04-19T03:37:58.259Z,11.23
2017-04-19T03:38:57.242Z,9.28
2017-04-19T03:39:56.192Z,13.58
2017-04-19T03:40:55.567Z,10.72
2017-04-19T03:41:54.608Z,9.08
2017-04-19T03:42:53.591Z,9.12
2017-04-19T03:43:52.558Z,8.83
2017-04-19T03:44:51.516Z,8.37
2017-04-19T03:45:51.320Z,8.55
2017-04-19T03:46:50.279Z,8.60
2017-04-19T03:47:49.287Z,9.45
2017-04-19T03:48:49.005Z,8.00
2017-04-19T03:49:48.021Z,10.17
2017-04-19T03:50:46.974Z,9.27
2017-04-19T03:51:45.956Z,9.63
2017-04-19T03:52:44.951Z,8.48
2017-04-19T03:53:43.957Z,9.37
2017-04-19T03:54:43.007Z,8.65
2017-04-19T03:55:41.997Z,8.70
2017-04-19T03:56:40.939Z,8.93
2017-04-19T03:57:40.659Z,8.33
2017-04-19T03:58:39.663Z,8.77
2017-04-19T03:59:38.640Z,10.23
2017-04-19T04:00:37.665Z,8.95
2017-04-19T04:01:36.627Z,10.17
2017-04-19T04:02:35.601Z,8.73
2017-04-19T04:03:34.560Z,10.73
2017-04-19T04:04:33.554Z,10.85
2017-04-19T04:05:32.555Z,9.02
2017-04-19T04:06:31.565Z,10.60
2017-04-19T04:07:30.524Z,10.95
2017-04-19T04:08:29.482Z,8.08
2017-04-19T04:09:28.428Z,8.92
2017-04-19T04:10:27.415Z,8.78
2017-04-19T04:11:26.387Z,9.78
2017-04-19T04:12:25.372Z,9.37
2017-04-19T04:13:24.404Z,9.55
2017-04-19T04:14:23.392Z,8.70
2017-04-19T04:15:22.404Z,9.12
2017-04-19T04:16:21.520Z,10.57
2017-04-19T04:17:20.511Z,9.38
2017-04-19T04:18:20.241Z,8.72
2017-04-19T04:19:19.225Z,9.25
2017-04-19T04:20:18.215Z,11.30
2017-04-19T04:21:17.159Z,7.03
2017-04-19T04:22:16.841Z,7.47
2017-04-19T04:23:15.824Z,8.32
2017-04-19T04:24:15.129Z,7.52
2017-04-19T04:25:14.861Z,9.72
2017-04-19T04:26:13.840Z,9.68
2017-04-19T04:27:12.804Z,8.45
2017-04-19T04:28:11.815Z,9.05
2017-04-19T04:29:10.847Z,8.97
2017-04-19T04:30:09.820Z,8.18
2017-04-19T04:31:08.832Z,8.00
2017-04-19T04:32:08.821Z,7.65
2017-04-19T04:33:07.805Z,7.65
2017-04-19T04:34:06.815Z,9.60
2017-04-19T04:35:05.823Z,9.35
2017-04-19T04:36:04.778Z,12.62
2017-04-19T04:37:04.484Z,13.65
2017-04-19T04:38:04.175Z,8.70
2017-04-19T04:39:03.216Z,12.02
2017-04-19T04:40:02.191Z,11.35
2017-04-19T04:41:01.204Z,8.77
2017-04-19T04:42:00.160Z,9.73
2017-04-19T04:42:59.161Z,8.12
2017-04-19T04:43:58.157Z,9.08
2017-04-19T04:44:57.136Z,10.88
2017-04-19T04:45:56.114Z,9.62
2017-04-19T04:46:55.116Z,7.77
2017-04-19T04:47:54.074Z,10.70
2017-04-19T04:48:53.041Z,10.48
2017-04-19T04:49:52.012Z,9.67
2017-04-19T04:50:51.012Z,10.13
2017-04-19T04:51:49.967Z,9.90
2017-04-19T04:52:48.962Z,10.22
2017-04-19T04:53:47.937Z,12.23
2017-04-19T04:54:46.884Z,7.88
2017-04-19T04:55:46.588Z,7.70
2017-04-19T04:56:46.282Z,9.72
2017-04-19T04:57:45.992Z,9.60
2017-04-19T04:58:45.000Z,7.42
2017-04-19T04:59:43.968Z,10.43
2017-04-19T05:00:42.948Z,9.95
2017-04-19T05:01:41.903Z,7.82
2017-04-19T05:02:41.617Z,14.57
2017-04-19T05:03:41.313Z,9.45
2017-04-19T05:04:41.045Z,9.15
2017-04-19T05:05:40.058Z,14.12
2017-04-19T05:06:39.032Z,8.75
2017-04-19T05:07:38.016Z,9.15
2017-04-19T05:08:36.986Z,9.73
2017-04-19T05:09:35.968Z,8.32
2017-04-19T05:10:34.996Z,8.93
2017-04-19T05:11:33.980Z,10.88
2017-04-19T05:12:33.896Z,11.77
2017-04-19T05:13:33.616Z,12.27
2017-04-19T05:14:32.579Z,9.80
2017-04-19T05:15:32.441Z,8.92
2017-04-19T05:16:31.447Z,12.12
2017-04-19T05:17:30.420Z,8.73
2017-04-19T05:18:29.387Z,10.53
2017-04-19T05:19:28.356Z,8.92
2017-04-19T05:20:27.373Z,18.35
2017-04-19T05:21:26.398Z,10.48
2017-04-19T05:22:25.476Z,10.98
2017-04-19T05:23:24.464Z,10.25
2017-04-19T05:24:23.432Z,12.97
2017-04-19T05:25:22.408Z,13.43
2017-04-19T05:26:21.388Z,11.70
2017-04-19T05:27:20.388Z,8.88
2017-04-19T05:28:20.258Z,7.18
2017-04-19T05:29:19.567Z,7.87
2017-04-19T05:30:18.623Z,9.85
2017-04-19T05:31:17.591Z,8.68
2017-04-19T05:32:16.558Z,7.77
2017-04-19T05:33:15.760Z,7.15
2017-04-19T05:34:14.824Z,6.63
2017-04-19T05:35:13.839Z,8.50
2017-04-19T05:36:12.819Z,5.85
2017-04-19T05:37:11.804Z,9.02
2017-04-19T05:38:10.779Z,7.62
2017-04-19T05:39:09.772Z,11.22
2017-04-19T05:40:08.784Z,6.97
2017-04-19T05:41:07.777Z,8.35
2017-04-19T05:42:06.739Z,6.08
2017-04-19T05:43:05.753Z,7.28
2017-04-19T05:44:04.699Z,9.40
2017-04-19T05:45:03.728Z,6.78
2017-04-19T05:46:03.493Z,7.32
2017-04-19T05:47:02.459Z,6.60
2017-04-19T05:48:01.428Z,7.27
2017-04-19T05:49:00.415Z,7.13
2017-04-19T05:49:59.393Z,7.30
2017-04-19T05:50:58.374Z,5.27
2017-04-19T05:51:57.376Z,6.92
2017-04-19T05:52:56.395Z,6.92
2017-04-19T05:53:55.563Z,7.17
2017-04-19T05:54:54.519Z,7.73
2017-04-19T05:55:53.848Z,8.62
2017-04-19T05:56:52.816Z,6.20
2017-04-19T05:57:51.818Z,5.87
2017-04-19T05:58:50.816Z,5.83
2017-04-19T05:59:49.791Z,6.83
2017-04-19T06:00:49.523Z,6.57
2017-04-19T06:01:48.505Z,6.43
2017-04-19T06:02:47.469Z,6.42
2017-04-19T06:03:46.479Z,7.67
2017-04-19T06:04:45.461Z,7.27
2017-04-19T06:05:44.456Z,6.93
2017-04-19T06:06:43.435Z,8.05
2017-04-19T06:07:42.410Z,5.68
2017-04-19T06:08:41.374Z,7.12
2017-04-19T06:09:40.348Z,5.32
2017-04-19T06:10:40.091Z,6.50
2017-04-19T06:11:39.052Z,7.50
2017-04-19T06:12:38.021Z,7.48
2017-04-19T06:13:37.050Z,6.53
2017-04-19T06:14:36.017Z,6.00
2017-04-19T06:15:35.003Z,6.20
2017-04-19T06:16:34.007Z,6.48
2017-04-19T06:17:33.056Z,8.15
2017-04-19T06:18:32.032Z,8.13
2017-04-19T06:19:31.015Z,5.70
2017-04-19T06:20:29.996Z,9.17
2017-04-19T06:21:28.974Z,6.33
2017-04-19T06:22:27.938Z,6.75
2017-04-19T06:23:27.644Z,6.18
2017-04-19T06:24:27.352Z,9.30
2017-04-19T06:25:26.343Z,6.73
2017-04-19T06:26:25.323Z,7.57
2017-04-19T06:27:24.337Z,6.97
2017-04-19T06:28:23.321Z,6.75
2017-04-19T06:29:22.290Z,6.78
2017-04-19T06:30:21.572Z,8.08
2017-04-19T06:31:20.868Z,5.30
2017-04-19T06:32:19.835Z,6.83
2017-04-19T06:33:18.875Z,5.22
2017-04-19T06:34:17.884Z,7.25
2017-04-19T06:35:16.861Z,6.00
2017-04-19T06:36:15.818Z,5.65
2017-04-19T06:37:14.789Z,7.35
2017-04-19T06:38:13.748Z,5.53
2017-04-19T06:39:12.808Z,5.50
2017-04-19T06:40:12.530Z,5.20
2017-04-19T06:41:11.517Z,7.98
2017-04-19T06:42:10.487Z,5.03
2017-04-19T06:43:09.504Z,6.50
2017-04-19T06:44:08.463Z,6.72
2017-04-19T06:45:07.434Z,4.90
2017-04-19T06:46:06.384Z,6.83
2017-04-19T06:47:05.332Z,5.32
2017-04-19T06:48:04.285Z,4.68
2017-04-19T06:49:03.236Z,3.82
2017-04-19T06:50:02.966Z,4.10
2017-04-19T06:51:01.985Z,4.38
2017-04-19T06:52:00.947Z,7.38
2017-04-19T06:52:59.899Z,4.00
2017-04-19T06:53:59.601Z,3.95
2017-04-19T06:54:59.295Z,7.27
2017-04-19T06:55:59.006Z,3.97
2017-04-19T06:56:58.019Z,5.23
2017-04-19T06:57:56.989Z,3.47
2017-04-19T06:58:56.129Z,5.75
2017-04-19T06:59:55.067Z,3.17
2017-04-19T07:00:54.025Z,4.35
2017-04-19T07:01:52.984Z,4.20
2017-04-19T07:02:56.915Z,3.32
2017-04-19T07:03:55.872Z,4.15
2017-04-19T07:04:54.837Z,4.63
2017-04-19T07:05:53.795Z,4.32
2017-04-19T07:06:52.747Z,4.17
2017-04-19T07:07:51.699Z,8.35
2017-04-19T07:08:50.723Z,5.49
2017-04-19T07:09:49.737Z,7.98
2017-04-19T07:10:48.951Z,3.60
2017-04-19T07:11:47.904Z,4.52
2017-04-19T07:12:46.856Z,4.00
2017-04-19T07:13:46.551Z,3.22
2017-04-19T07:14:45.507Z,5.65
2017-04-19T07:15:44.471Z,3.70
2017-04-19T07:16:43.459Z,3.07
2017-04-19T07:17:42.412Z,4.57
2017-04-19T07:18:41.389Z,4.23
2017-04-19T07:19:40.380Z,3.55
2017-04-19T07:20:39.359Z,4.55
2017-04-19T07:21:38.341Z,4.10
2017-04-19T07:22:37.331Z,4.67
2017-04-19T07:23:36.300Z,3.30
2017-04-19T07:24:35.260Z,3.37
2017-04-19T07:25:34.292Z,3.87
2017-04-19T07:26:33.274Z,2.74
2017-04-19T07:27:32.246Z,3.62
2017-04-19T07:28:31.249Z,9.01
2017-04-19T07:29:30.207Z,2.63
2017-04-19T07:30:30.495Z,5.49
2017-04-19T07:31:29.523Z,3.33
2017-04-19T07:32:28.514Z,2.67
2017-04-19T07:33:27.472Z,2.46
2017-04-19T07:34:26.449Z,2.95
2017-04-19T07:35:25.416Z,3.00
2017-04-19T07:36:24.389Z,3.60
2017-04-19T07:37:23.385Z,4.93
2017-04-19T07:38:22.388Z,3.77
2017-04-19T07:39:21.349Z,2.97
2017-04-19T07:40:20.315Z,2.69
2017-04-19T07:41:19.313Z,3.27
2017-04-19T07:42:18.295Z,2.27
2017-04-19T07:43:17.292Z,2.66
2017-04-19T07:44:16.259Z,3.73
2017-04-19T07:45:15.237Z,3.04
2017-04-19T07:46:14.212Z,3.83
2017-04-19T07:47:13.778Z,3.04
2017-04-19T07:48:12.744Z,4.53
2017-04-19T07:49:11.700Z,4.47
2017-04-19T07:50:10.687Z,2.80
2017-04-19T07:51:09.639Z,2.24
2017-04-19T07:52:08.615Z,3.13
2017-04-19T07:53:08.365Z,2.44
2017-04-19T07:54:07.348Z,5.59
2017-04-19T07:55:06.334Z,3.64
2017-04-19T07:56:05.344Z,3.80
2017-04-19T07:57:04.295Z,5.91
2017-04-19T07:58:03.320Z,3.03
2017-04-19T07:59:02.273Z,2.84
2017-04-19T08:00:01.237Z,4.43
2017-04-19T08:01:00.249Z,3.79
2017-04-19T08:01:59.234Z,2.46
2017-04-19T08:02:58.223Z,2.40
2017-04-19T08:03:57.185Z,3.96
2017-04-19T08:04:56.139Z,2.37
2017-04-19T08:05:55.129Z,2.39
2017-04-19T08:06:54.089Z,2.96
2017-04-19T08:07:53.072Z,2.20
2017-04-19T08:08:52.027Z,1.96
2017-04-19T08:09:51.008Z,3.29
2017-04-19T08:10:50.740Z,4.03
2017-04-19T08:11:49.702Z,3.39
2017-04-19T08:12:49.410Z,2.43
2017-04-19T08:13:48.382Z,2.41
2017-04-19T08:14:48.072Z,3.54
2017-04-19T08:15:47.038Z,1.69
2017-04-19T08:16:45.996Z,2.59
2017-04-19T08:17:44.951Z,2.14
2017-04-19T08:18:43.931Z,1.83
2017-04-19T08:19:42.904Z,2.09
2017-04-19T08:20:41.870Z,1.80
2017-04-19T08:21:40.829Z,2.29
2017-04-19T08:22:39.803Z,2.17
2017-04-19T08:23:38.772Z,2.19
2017-04-19T08:24:37.732Z,3.09
2017-04-19T08:25:36.744Z,2.41
2017-04-19T08:27:08.476Z,2.59
2017-04-19T08:28:07.432Z,1.93
2017-04-19T08:29:07.144Z,2.21
2017-04-19T08:30:06.099Z,2.14
2017-04-19T08:31:05.108Z,4.43
2017-04-19T08:32:04.092Z,2.87
2017-04-19T08:33:03.073Z,3.14
2017-04-19T08:34:02.026Z,2.47
2017-04-19T08:35:00.994Z,2.50
2017-04-19T08:35:59.952Z,2.70
2017-04-19T08:36:58.936Z,2.14
2017-04-19T08:37:57.906Z,2.36
2017-04-19T08:38:56.847Z,2.94
2017-04-19T08:39:55.822Z,2.67
2017-04-19T08:40:55.541Z,5.57
2017-04-19T08:41:55.260Z,2.57
2017-04-19T08:42:54.269Z,2.77
2017-04-19T08:43:53.227Z,3.70
2017-04-19T08:44:52.179Z,2.61
2017-04-19T08:45:51.217Z,3.63
2017-04-19T08:46:50.223Z,2.84
2017-04-19T08:47:49.187Z,5.17
2017-04-19T08:48:48.186Z,3.56
2017-04-19T08:49:47.142Z,2.24
2017-04-19T08:50:46.872Z,2.47
2017-04-19T08:51:45.903Z,2.60
2017-04-19T08:52:44.869Z,3.14
2017-04-19T08:53:44.635Z,2.54
2017-04-19T08:54:43.666Z,3.13
2017-04-19T08:55:42.642Z,3.60
2017-04-19T08:56:41.632Z,2.41
2017-04-19T08:57:40.618Z,2.66
2017-04-19T08:58:39.579Z,2.64
2017-04-19T08:59:38.552Z,2.60
2017-04-19T09:00:37.540Z,2.06
2017-04-19T09:01:36.521Z,2.23
2017-04-19T09:02:35.496Z,2.16
2017-04-19T09:03:34.639Z,2.19
2017-04-19T09:04:34.344Z,2.19
2017-04-19T09:05:33.303Z,2.76
2017-04-19T09:06:32.289Z,1.96
2017-04-19T09:07:31.243Z,4.26
2017-04-19T09:08:30.216Z,2.01
2017-04-19T09:09:29.203Z,2.31
2017-04-19T09:10:28.173Z,2.17
2017-04-19T09:11:27.165Z,2.74
2017-04-19T09:12:26.220Z,1.94
2017-04-19T09:13:25.167Z,2.09
2017-04-19T09:14:24.156Z,2.19
2017-04-19T09:15:23.124Z,2.70
2017-04-19T09:16:22.071Z,2.41
2017-04-19T09:17:21.064Z,2.53
2017-04-19T09:18:20.048Z,3.23
2017-04-19T09:19:18.991Z,4.54
2017-04-19T09:20:18.691Z,3.14
2017-04-19T09:21:18.416Z,3.44
2017-04-19T09:22:17.415Z,2.73
2017-04-19T09:23:16.383Z,3.21
2017-04-19T09:24:15.379Z,3.06
2017-04-19T09:25:14.351Z,2.53
2017-04-19T09:26:13.321Z,3.00
2017-04-19T09:27:12.296Z,3.83
2017-04-19T09:28:11.251Z,3.84
2017-04-19T09:29:10.220Z,2.94
2017-04-19T09:30:09.216Z,4.61
2017-04-19T09:31:08.193Z,3.91
2017-04-19T09:32:07.167Z,3.33
2017-04-19T09:33:06.147Z,2.23
2017-04-19T09:34:05.105Z,2.49
2017-04-19T09:35:04.061Z,2.79
2017-04-19T09:36:03.070Z,4.71
2017-04-19T09:37:02.124Z,2.26
2017-04-19T09:38:01.134Z,2.49
2017-04-19T09:39:00.145Z,2.93
2017-04-19T09:39:59.108Z,4.00
2017-04-19T09:40:58.093Z,2.56
2017-04-19T09:41:57.078Z,3.04
2017-04-19T09:42:56.305Z,2.76
2017-04-19T09:43:55.247Z,3.47
2017-04-19T09:44:54.197Z,5.13
2017-04-19T09:45:53.151Z,2.93
2017-04-19T09:46:52.095Z,2.64
2017-04-19T09:47:51.079Z,3.63
2017-04-19T09:48:50.132Z,3.17
2017-04-19T09:49:49.108Z,2.74
2017-04-19T09:50:48.086Z,2.29
2017-04-19T09:51:47.051Z,3.19
2017-04-19T09:52:46.761Z,3.00
2017-04-19T09:53:45.811Z,2.84
2017-04-19T09:54:44.820Z,3.07
2017-04-19T09:55:44.529Z,3.27
2017-04-19T09:56:43.500Z,3.06
2017-04-19T09:57:43.199Z,3.06
2017-04-19T09:58:42.156Z,2.86
2017-04-19T09:59:41.150Z,3.24
2017-04-19T10:00:40.096Z,4.30
2017-04-19T10:01:39.061Z,3.01
2017-04-19T10:02:38.023Z,2.63
2017-04-19T10:03:37.025Z,3.79
2017-04-19T10:04:36.031Z,3.63
2017-04-19T10:05:35.007Z,3.31
2017-04-19T10:06:33.974Z,3.61
2017-04-19T10:07:32.941Z,4.64
2017-04-19T10:08:31.905Z,3.83
2017-04-19T10:09:31.617Z,3.66
2017-04-19T10:10:30.630Z,3.66
2017-04-19T10:11:29.637Z,3.09
2017-04-19T10:12:28.623Z,6.69
2017-04-19T10:13:27.595Z,3.86
2017-04-19T10:14:26.560Z,5.33
2017-04-19T10:15:25.523Z,7.09
2017-04-19T10:16:24.483Z,12.80
2017-04-19T10:17:23.498Z,3.73
2017-04-19T10:18:22.459Z,5.53
2017-04-19T10:19:22.228Z,4.53
2017-04-19T10:20:21.283Z,3.80
2017-04-19T10:21:20.447Z,3.87
2017-04-19T10:22:19.412Z,3.46
2017-04-19T10:23:18.470Z,4.76
2017-04-19T10:24:17.450Z,4.07
2017-04-19T10:25:16.415Z,3.01
2017-04-19T10:26:15.381Z,3.94
2017-04-19T10:27:14.345Z,3.20
2017-04-19T10:28:13.327Z,2.80
2017-04-19T10:29:12.309Z,3.17
2017-04-19T10:30:11.268Z,3.81
2017-04-19T10:31:10.957Z,3.27
2017-04-19T10:32:09.926Z,3.16
2017-04-19T10:33:08.878Z,3.40
2017-04-19T10:34:07.887Z,3.87
2017-04-19T10:35:06.858Z,4.46
2017-04-19T10:36:05.846Z,3.01
2017-04-19T10:37:04.830Z,3.19
2017-04-19T10:38:03.822Z,3.63
2017-04-19T10:39:02.798Z,3.99
2017-04-19T10:40:01.767Z,4.17
2017-04-19T10:41:00.776Z,3.87
2017-04-19T10:42:00.157Z,3.47
2017-04-19T10:42:59.116Z,4.06
2017-04-19T10:43:58.083Z,6.69
2017-04-19T10:44:57.040Z,4.10
2017-04-19T10:45:56.743Z,4.27
2017-04-19T10:46:56.540Z,5.21
2017-04-19T10:47:55.494Z,7.56
2017-04-19T10:48:54.452Z,5.39
2017-04-19T10:49:53.414Z,3.95
2017-04-19T10:50:52.382Z,4.60
2017-04-19T10:51:52.096Z,3.57
2017-04-19T10:52:51.108Z,4.31
2017-04-19T10:53:50.078Z,4.04
2017-04-19T10:54:49.043Z,3.60
2017-04-19T10:55:48.026Z,3.40
2017-04-19T10:56:47.044Z,4.46
2017-04-19T10:57:46.007Z,3.87
2017-04-19T10:58:45.000Z,3.51
2017-04-19T10:59:43.972Z,4.07
2017-04-19T11:00:42.921Z,4.33
2017-04-19T11:01:42.607Z,3.93
2017-04-19T11:02:41.673Z,3.93
2017-04-19T11:03:40.655Z,6.41
2017-04-19T11:04:39.656Z,5.19
2017-04-19T11:05:38.623Z,4.51
2017-04-19T11:06:37.604Z,3.49
2017-04-19T11:07:36.588Z,4.24
2017-04-19T11:08:35.548Z,3.67
2017-04-19T11:09:34.516Z,3.43
2017-04-19T11:10:33.566Z,4.97
2017-04-19T11:11:33.287Z,4.34
2017-04-19T11:12:32.272Z,4.29
2017-04-19T11:13:31.255Z,3.21
2017-04-19T11:14:30.232Z,3.00
2017-04-19T11:15:29.195Z,2.96
2017-04-19T11:16:28.168Z,3.80
2017-04-19T11:17:27.114Z,5.00
2017-04-19T11:18:26.081Z,4.24
2017-04-19T11:19:25.053Z,3.86
2017-04-19T11:20:24.030Z,6.40
2017-04-19T11:21:23.039Z,4.40
2017-04-19T11:22:22.019Z,4.97
2017-04-19T11:23:21.011Z,7.81
2017-04-19T11:24:19.967Z,16.83
2017-04-19T11:25:18.937Z,5.26
2017-04-19T11:26:18.703Z,5.11
2017-04-19T11:27:17.686Z,4.64
2017-04-19T11:28:16.690Z,5.10
2017-04-19T11:29:15.652Z,5.03
2017-04-19T11:30:14.649Z,4.41
2017-04-19T11:31:13.600Z,4.71
2017-04-19T11:32:12.572Z,4.59
2017-04-19T11:33:11.532Z,4.90
2017-04-19T11:34:10.820Z,4.94
2017-04-19T11:35:09.867Z,5.66
2017-04-19T11:36:08.837Z,4.56
2017-04-19T11:37:07.821Z,4.47
2017-04-19T11:38:06.775Z,4.24
2017-04-19T11:39:06.079Z,4.20
2017-04-19T11:40:05.067Z,4.23
2017-04-19T11:41:04.031Z,4.33
2017-04-19T11:42:02.984Z,4.54
2017-04-19T11:43:02.042Z,3.20
2017-04-19T11:44:01.016Z,3.66
2017-04-19T11:44:59.980Z,3.81
2017-04-19T11:45:58.981Z,4.41
2017-04-19T11:46:57.939Z,3.73
2017-04-19T11:47:56.900Z,4.17
2017-04-19T11:48:55.881Z,3.63
2017-04-19T11:49:54.848Z,3.27
2017-04-19T11:50:53.804Z,5.89
2017-04-19T11:51:52.782Z,3.99
2017-04-19T11:52:51.729Z,3.47
2017-04-19T11:53:50.687Z,3.51
2017-04-19T11:54:49.666Z,4.81
2017-04-19T11:55:48.615Z,3.56
2017-04-19T11:56:47.672Z,4.30
2017-04-19T11:57:46.689Z,3.43
2017-04-19T11:58:45.640Z,3.64
2017-04-19T11:59:44.595Z,4.70
2017-04-19T12:00:43.581Z,3.14
2017-04-19T12:01:42.589Z,4.47
2017-04-19T12:02:41.559Z,4.24
2017-04-19T12:03:40.566Z,3.37
2017-04-19T12:04:39.532Z,3.63
2017-04-19T12:05:38.500Z,3.59
2017-04-19T12:06:37.456Z,3.67
2017-04-19T12:07:36.422Z,3.44
2017-04-19T12:08:35.386Z,3.90
2017-04-19T12:09:34.431Z,3.97
2017-04-19T12:10:33.615Z,2.93
2017-04-19T12:11:32.554Z,2.79
2017-04-19T12:12:31.881Z,3.06
2017-04-19T12:13:30.864Z,3.51
2017-04-19T12:14:29.831Z,2.71
2017-04-19T12:15:28.790Z,3.07
2017-04-19T12:16:27.778Z,3.83
2017-04-19T12:17:26.752Z,3.01
2017-04-19T12:18:25.719Z,3.41
2017-04-19T12:19:24.737Z,4.64
2017-04-19T12:20:24.614Z,3.47
2017-04-19T12:21:23.570Z,3.61
2017-04-19T12:22:22.541Z,3.89
2017-04-19T12:23:21.486Z,3.56
2017-04-19T12:24:21.199Z,3.39
2017-04-19T12:25:20.172Z,3.30
2017-04-19T12:26:19.868Z,3.74
2017-04-19T12:27:19.638Z,3.56
2017-04-19T12:28:18.607Z,3.06
2017-04-19T12:29:17.743Z,3.64
2017-04-19T12:30:17.456Z,3.81
2017-04-19T12:31:16.439Z,3.56
2017-04-19T12:32:15.408Z,3.84
2017-04-19T12:33:14.378Z,4.24
2017-04-19T12:34:13.355Z,4.17
2017-04-19T12:35:12.312Z,6.43
2017-04-19T12:36:11.263Z,3.13
2017-04-19T12:37:10.218Z,3.33
2017-04-19T12:38:09.198Z,4.97
2017-04-19T12:39:08.187Z,3.06
2017-04-19T12:40:07.150Z,4.10
2017-04-19T12:41:06.892Z,4.34
2017-04-19T12:42:05.855Z,3.46
2017-04-19T12:43:05.133Z,3.23
2017-04-19T12:44:04.107Z,4.13
2017-04-19T12:45:03.094Z,2.96
2017-04-19T12:46:02.098Z,3.69
2017-04-19T12:47:01.038Z,2.96
2017-04-19T12:48:00.007Z,3.27
2017-04-19T12:48:58.966Z,5.03
2017-04-19T12:49:57.940Z,3.59
2017-04-19T12:50:56.929Z,4.97
2017-04-19T12:51:56.199Z,4.04
2017-04-19T12:52:55.197Z,3.84
2017-04-19T12:53:54.138Z,5.03
2017-04-19T12:54:53.101Z,4.80
2017-04-19T12:55:52.076Z,4.79
2017-04-19T12:56:51.101Z,3.84
2017-04-19T12:57:50.831Z,4.86
2017-04-19T12:58:49.805Z,3.61
2017-04-19T12:59:48.854Z,3.71
2017-04-19T13:00:47.826Z,3.00
2017-04-19T13:01:46.809Z,2.67
2017-04-19T13:02:45.816Z,2.53